Time;durP1;ratioP1;P1;durP2;ratioP2;P2;SDS_P1;SDS_P2;PMS_P1;PMS_P2;Temp;Humidity;BMP_temperature;BMP_pressure;BME280_temperature;BME280_humidity;BME280_pressure;Samples;Min_cycle;Max_cycle;Signal;HPM_P1;HPM_P2
2023/09/02 00:00:28;;;;;;;3.40;1.70;;;;;;;20.73;76.44;100407.91;5109531;28;20274;-58
2023/09/02 00:02:54;;;;;;;6.13;1.53;;;;;;;20.74;75.96;100409.59;5109471;28;20938;-59
2023/09/02 00:05:19;;;;;;;4.90;1.90;;;;;;;20.75;76.29;100405.50;5095735;28;20186;-58
2023/09/02 00:07:44;;;;;;;4.67;2.03;;;;;;;20.76;76.43;100409.16;5101046;28;20197;-58
2023/09/02 00:10:10;;;;;;;6.03;1.40;;;;;;;20.76;75.96;100409.16;5091738;28;20190;-58
2023/09/02 00:12:35;;;;;;;3.17;1.50;;;;;;;20.76;76.21;100412.88;5089098;28;20155;-58
2023/09/02 00:15:01;;;;;;;4.40;1.60;;;;;;;20.75;76.14;100419.84;5103483;28;20235;-58
2023/09/02 00:17:26;;;;;;;3.97;1.90;;;;;;;20.75;76.09;100413.28;5093153;28;20273;-59
2023/09/02 00:19:52;;;;;;;2.63;1.50;;;;;;;20.75;76.09;100419.00;5105213;28;20231;-58
2023/09/02 00:22:17;;;;;;;3.90;1.37;;;;;;;20.74;76.20;100421.06;5101662;28;20222;-59
2023/09/02 00:24:43;;;;;;;5.50;1.80;;;;;;;20.74;76.35;100418.19;5114211;27;20185;-59
2023/09/02 00:27:09;;;;;;;3.97;1.90;;;;;;;20.73;76.24;100409.97;5112650;27;20189;-59
2023/09/02 00:29:35;;;;;;;10.23;1.80;;;;;;;20.72;76.55;100414.88;5089415;28;20653;-58
2023/09/02 00:32:01;;;;;;;2.87;1.67;;;;;;;20.73;76.48;100416.53;5099444;28;20439;-59
2023/09/02 00:34:26;;;;;;;4.27;1.50;;;;;;;20.72;76.66;100423.50;5105091;28;20617;-59
2023/09/02 00:36:52;;;;;;;5.47;1.77;;;;;;;20.72;76.45;100423.50;5101908;28;20184;-58
2023/09/02 00:39:17;;;;;;;3.00;1.43;;;;;;;20.73;76.44;100424.31;5107661;28;20636;-58
2023/09/02 00:41:50;;;;;;;2.80;1.23;;;;;;;20.71;76.51;100421.84;5096833;28;20279;-58
2023/09/02 00:44:15;;;;;;;4.00;1.70;;;;;;;20.72;76.37;100419.81;5065096;28;20174;-59
2023/09/02 00:46:41;;;;;;;2.60;1.60;;;;;;;20.71;76.21;100423.88;5108381;28;20471;-59
2023/09/02 00:49:06;;;;;;;5.83;1.50;;;;;;;20.70;76.37;100420.19;5107962;28;20202;-58
2023/09/02 00:51:32;;;;;;;3.47;1.37;;;;;;;20.71;76.38;100421.00;5108587;27;20219;-58
2023/09/02 00:53:57;;;;;;;2.30;1.40;;;;;;;20.70;76.03;100422.22;5108659;28;20189;-59
2023/09/02 00:56:24;;;;;;;2.33;1.23;;;;;;;20.69;76.42;100427.16;5104458;28;20287;-58
2023/09/02 00:58:49;;;;;;;4.87;1.47;;;;;;;20.69;76.32;100421.44;5108476;28;20253;-59
2023/09/02 01:01:15;;;;;;;5.90;2.20;;;;;;;20.68;76.20;100425.47;5101002;28;20507;-58
2023/09/02 01:03:40;;;;;;;2.97;1.70;;;;;;;20.68;75.91;100414.00;5110019;27;20193;-58
2023/09/02 01:06:08;;;;;;;5.97;2.03;;;;;;;20.68;75.99;100424.69;5108507;28;20181;-59
2023/09/02 01:08:33;;;;;;;5.10;1.53;;;;;;;20.67;76.03;100432.44;5110836;28;20209;-58
2023/09/02 01:10:59;;;;;;;3.93;1.73;;;;;;;20.68;76.49;100425.47;5102497;28;20444;-58
2023/09/02 01:13:25;;;;;;;6.50;1.90;;;;;;;20.67;76.03;100420.16;5088433;28;20276;-58
2023/09/02 01:15:53;;;;;;;4.23;1.43;;;;;;;20.67;76.43;100417.28;5098930;28;20272;-59
2023/09/02 01:18:18;;;;;;;3.03;1.77;;;;;;;20.66;75.97;100416.47;5108241;28;20420;-59
2023/09/02 01:21:09;;;;;;;2.63;1.50;;;;;;;20.66;75.91;100415.63;5102537;28;20443;-58
2023/09/02 01:24:06;;;;;;;3.30;1.70;;;;;;;20.67;76.01;100428.78;5108181;28;20225;-59
2023/09/02 01:27:06;;;;;;;3.40;1.40;;;;;;;20.67;75.95;100420.16;5098501;28;20483;-59
2023/09/02 01:29:34;;;;;;;3.03;1.63;;;;;;;20.65;76.07;100417.69;5103792;28;20451;-58
2023/09/02 01:32:01;;;;;;;3.30;1.33;;;;;;;20.65;76.14;100425.44;5067636;28;20475;-59
2023/09/02 01:34:28;;;;;;;3.33;1.90;;;;;;;20.65;75.97;100419.72;5119259;28;20432;-58
2023/09/02 01:36:54;;;;;;;5.90;1.20;;;;;;;20.65;75.84;100425.44;5089298;28;20411;-58
2023/09/02 01:39:20;;;;;;;4.13;1.40;;;;;;;20.66;75.89;100421.34;5085030;28;20449;-58
2023/09/02 01:41:46;;;;;;;2.60;1.60;;;;;;;20.64;76.00;100430.38;5111162;28;20243;-58
2023/09/02 01:44:11;;;;;;;2.50;1.50;;;;;;;20.64;75.71;100439.00;5078692;28;20424;-59
2023/09/02 01:46:37;;;;;;;2.90;1.40;;;;;;;20.64;75.82;100439.00;5077261;28;20645;-58
2023/09/02 01:49:03;;;;;;;2.90;1.57;;;;;;;20.64;75.59;100439.00;5091673;28;20202;-58
2023/09/02 01:51:28;;;;;;;6.93;1.60;;;;;;;20.64;76.04;100435.28;5078391;28;20318;-58
2023/09/02 01:53:53;;;;;;;6.43;1.67;;;;;;;20.63;76.01;100434.44;5105216;28;20174;-58
2023/09/02 01:56:19;;;;;;;4.37;1.50;;;;;;;20.63;76.12;100440.19;5091578;28;20182;-59
2023/09/02 01:58:45;;;;;;;3.63;1.60;;;;;;;20.62;75.77;100438.53;5095981;28;20178;-58
2023/09/02 02:01:10;;;;;;;4.40;1.60;;;;;;;20.63;75.87;100445.09;5084851;28;20193;-59
2023/09/02 02:03:37;;;;;;;3.03;1.30;;;;;;;20.63;75.86;100445.91;5091196;28;20436;-59
2023/09/02 02:06:04;;;;;;;4.33;1.97;;;;;;;20.63;75.75;100445.09;5090115;28;20158;-58
2023/09/02 02:08:55;;;;;;;2.97;1.50;;;;;;;20.63;75.92;100445.09;5073181;28;20512;-58
2023/09/02 02:11:21;;;;;;;3.57;1.53;;;;;;;20.61;75.84;100442.63;5077340;28;20497;-59
2023/09/02 02:13:49;;;;;;;2.93;1.77;;;;;;;20.61;75.61;100451.22;5088912;28;20435;-58
2023/09/02 02:16:14;;;;;;;3.47;1.47;;;;;;;20.61;75.58;100451.22;5092702;28;20169;-58
2023/09/02 02:18:40;;;;;;;4.53;1.60;;;;;;;20.61;75.93;100451.22;5107882;28;20471;-59
2023/09/02 02:21:05;;;;;;;3.63;1.47;;;;;;;20.61;75.92;100454.09;5109097;28;20177;-58
2023/09/02 02:23:31;;;;;;;4.90;1.63;;;;;;;20.60;75.96;100463.94;5109675;28;20221;-58
2023/09/02 02:26:03;;;;;;;5.00;1.47;;;;;;;20.61;75.84;100462.72;5104759;28;20243;-59
2023/09/02 02:28:29;;;;;;;3.03;1.60;;;;;;;20.60;75.73;100463.09;5106919;28;20201;-58
2023/09/02 02:30:56;;;;;;;4.90;1.30;;;;;;;20.60;75.89;100451.63;5110982;27;20432;-59
2023/09/02 02:33:22;;;;;;;3.13;1.57;;;;;;;20.60;75.17;100451.63;5102764;28;20245;-58
2023/09/02 02:35:47;;;;;;;4.40;1.70;;;;;;;20.60;75.34;100460.22;5090782;28;20812;-58
2023/09/02 02:38:13;;;;;;;2.80;1.50;;;;;;;20.59;75.68;100462.28;5110779;28;20173;-58
2023/09/02 02:40:38;;;;;;;2.97;1.70;;;;;;;20.59;75.44;100459.41;5104587;27;20200;-58
2023/09/02 02:43:04;;;;;;;3.30;1.47;;;;;;;20.59;75.36;100455.72;5111020;28;20230;-58
2023/09/02 02:45:29;;;;;;;6.77;2.10;;;;;;;20.58;75.21;100460.59;5113492;27;20621;-58
2023/09/02 02:47:55;;;;;;;4.90;2.00;;;;;;;20.59;75.29;100467.19;5110936;28;20200;-59
2023/09/02 02:50:20;;;;;;;4.30;1.60;;;;;;;20.58;75.57;100460.59;5097108;28;20206;-59
2023/09/02 02:52:46;;;;;;;3.63;1.50;;;;;;;20.57;75.30;100455.28;5091982;28;20292;-58
2023/09/02 02:55:12;;;;;;;2.93;1.30;;;;;;;20.57;75.31;100458.97;5110387;27;20185;-59
2023/09/02 02:57:37;;;;;;;4.70;1.33;;;;;;;20.57;75.42;100458.97;5093008;28;20182;-58
2023/09/02 03:00:03;;;;;;;3.00;1.63;;;;;;;20.58;74.94;100460.59;5109761;27;20248;-59
2023/09/02 03:02:29;;;;;;;2.50;1.30;;;;;;;20.56;74.91;100460.19;5110615;27;20209;-58
2023/09/02 03:04:54;;;;;;;2.63;1.47;;;;;;;20.56;74.97;100460.19;5106745;28;20178;-59
2023/09/02 03:07:19;;;;;;;2.77;1.37;;;;;;;20.56;75.07;100465.94;5110797;28;20219;-59
2023/09/02 03:09:45;;;;;;;3.73;1.13;;;;;;;20.56;74.96;100470.81;5110826;28;20262;-58
2023/09/02 03:12:10;;;;;;;4.07;1.73;;;;;;;20.57;74.92;100463.91;5113779;27;20555;-58
2023/09/02 03:14:36;;;;;;;4.27;1.60;;;;;;;20.56;75.13;100468.78;5102227;28;20189;-59
2023/09/02 03:17:01;;;;;;;2.47;1.17;;;;;;;20.55;74.85;100467.16;5109906;28;20170;-59
2023/09/02 03:19:27;;;;;;;2.37;1.40;;;;;;;20.56;75.07;100473.69;5088559;28;20178;-59
2023/09/02 03:21:52;;;;;;;2.77;1.30;;;;;;;20.55;74.83;100480.66;5104132;28;20247;-58
2023/09/02 03:24:17;;;;;;;2.10;1.30;;;;;;;20.55;75.22;100483.53;5110319;28;20227;-59
2023/09/02 03:26:43;;;;;;;3.07;1.20;;;;;;;20.55;74.79;100481.50;5107757;28;20188;-58
2023/09/02 03:29:08;;;;;;;2.07;1.20;;;;;;;20.56;74.70;100488.03;5127422;27;20648;-58
2023/09/02 03:31:34;;;;;;;3.90;1.50;;;;;;;20.55;74.67;100484.34;5108915;27;20904;-58
2023/09/02 03:33:59;;;;;;;4.43;1.43;;;;;;;20.55;74.88;100483.53;5109242;28;20251;-59
2023/09/02 03:36:25;;;;;;;1.90;1.07;;;;;;;20.55;74.69;100481.50;5107125;28;20179;-58
2023/09/02 03:38:50;;;;;;;3.57;1.10;;;;;;;20.55;74.90;100489.25;5090235;28;20687;-59
2023/09/02 03:41:19;;;;;;;4.87;1.50;;;;;;;20.54;74.63;100488.44;5095391;28;20223;-58
2023/09/02 03:43:45;;;;;;;2.23;1.23;;;;;;;20.53;75.00;100483.91;5100244;28;20212;-59
2023/09/02 03:46:11;;;;;;;2.43;1.03;;;;;;;20.54;74.85;100485.59;5109382;28;20408;-59
2023/09/02 03:48:36;;;;;;;4.23;1.30;;;;;;;20.52;74.52;100482.25;5107912;28;20502;-58
2023/09/02 03:51:11;;;;;;;2.50;1.10;;;;;;;20.53;74.67;100481.03;5093582;28;20198;-58
2023/09/02 03:53:37;;;;;;;3.40;1.33;;;;;;;20.53;74.56;100491.69;5108917;28;20620;-58
2023/09/02 03:56:03;;;;;;;3.53;1.57;;;;;;;20.52;74.43;100484.31;5094644;28;20437;-58
2023/09/02 03:58:28;;;;;;;2.90;1.50;;;;;;;20.52;74.81;100478.59;5105361;28;20460;-58
2023/09/02 04:00:54;;;;;;;3.07;1.20;;;;;;;20.53;74.35;100483.09;5105921;28;20230;-58
2023/09/02 04:03:21;;;;;;;2.60;1.30;;;;;;;20.52;74.54;100496.59;5104777;28;20185;-58
2023/09/02 04:05:47;;;;;;;2.20;1.20;;;;;;;20.52;74.65;100487.19;5109088;28;20257;-58
2023/09/02 04:08:13;;;;;;;2.07;1.23;;;;;;;20.51;74.25;100489.22;5108796;28;20451;-58
2023/09/02 04:10:38;;;;;;;6.37;1.20;;;;;;;20.51;74.62;100483.47;5108120;28;20426;-59
2023/09/02 04:13:04;;;;;;;3.20;1.20;;;;;;;20.51;74.21;100480.63;5101013;28;20265;-58
2023/09/02 04:15:29;;;;;;;2.17;1.17;;;;;;;20.52;74.32;100484.31;5088036;28;20251;-58
2023/09/02 04:17:55;;;;;;;2.80;1.53;;;;;;;20.50;74.54;100470.34;5107615;28;20189;-58
2023/09/02 04:20:20;;;;;;;2.43;1.53;;;;;;;20.50;74.17;100476.09;5108327;28;20181;-58
2023/09/02 04:22:46;;;;;;;2.87;1.10;;;;;;;20.50;74.01;100470.34;5096936;28;20253;-58
2023/09/02 04:25:12;;;;;;;2.10;1.27;;;;;;;20.49;74.58;100470.75;5096744;28;20281;-58
2023/09/02 04:27:37;;;;;;;3.43;1.20;;;;;;;20.49;74.43;100474.44;5105451;28;20184;-58
2023/09/02 04:30:03;;;;;;;3.57;1.30;;;;;;;20.48;74.21;100467.06;5109020;28;20899;-59
2023/09/02 04:32:29;;;;;;;2.17;1.20;;;;;;;20.48;74.36;100478.53;5104923;28;20235;-59
2023/09/02 04:34:55;;;;;;;4.30;1.20;;;;;;;20.49;74.09;100470.75;5097342;28;20660;-58
2023/09/02 04:37:21;;;;;;;2.60;1.20;;;;;;;20.49;74.36;100468.72;5104972;28;20173;-59
2023/09/02 04:39:46;;;;;;;2.50;1.30;;;;;;;20.48;74.26;100467.06;5106876;28;20792;-58
2023/09/02 04:42:12;;;;;;;2.57;1.10;;;;;;;20.47;74.33;100471.13;5105667;28;20186;-58
2023/09/02 04:44:37;;;;;;;2.17;1.37;;;;;;;20.48;73.61;100471.97;5108859;27;20594;-59
2023/09/02 04:47:03;;;;;;;3.60;2.10;;;;;;;20.47;74.08;100473.19;5096544;27;20186;-58
2023/09/02 04:49:29;;;;;;;3.70;1.40;;;;;;;20.47;73.78;100474.00;5107393;28;20217;-59
2023/09/02 04:51:54;;;;;;;3.13;1.50;;;;;;;20.47;73.64;100476.88;5106373;28;20431;-59
2023/09/02 04:54:20;;;;;;;4.07;1.60;;;;;;;20.47;73.72;100476.88;5105833;28;20186;-59
2023/09/02 04:56:45;;;;;;;2.43;1.30;;;;;;;20.47;74.23;100479.72;5103513;28;20656;-59
2023/09/02 04:59:11;;;;;;;2.97;1.73;;;;;;;20.47;73.61;100488.34;5089764;28;20671;-58
2023/09/02 05:01:36;;;;;;;3.13;1.60;;;;;;;20.47;73.97;100484.66;5098595;28;20491;-59
2023/09/02 05:04:02;;;;;;;5.30;1.90;;;;;;;20.46;73.61;100485.88;5109603;27;20558;-58
2023/09/02 05:06:27;;;;;;;2.60;1.43;;;;;;;20.46;73.64;100492.44;5106294;28;20177;-58
2023/09/02 05:08:54;;;;;;;2.33;1.27;;;;;;;20.45;73.55;100476.44;5105980;28;20210;-58
2023/09/02 05:11:20;;;;;;;1.80;1.07;;;;;;;20.45;73.76;100487.91;5107459;28;20516;-58
2023/09/02 05:13:48;;;;;;;3.63;1.33;;;;;;;20.46;73.54;100486.69;5104389;28;20457;-58
2023/09/02 05:16:13;;;;;;;2.97;1.40;;;;;;;20.45;73.65;100492.81;5111841;28;20489;-58
2023/09/02 05:18:38;;;;;;;4.00;1.50;;;;;;;20.45;73.63;100496.50;5107456;28;20392;-58
2023/09/02 05:21:04;;;;;;;2.83;1.40;;;;;;;20.45;73.24;100487.91;5106654;28;20288;-58
2023/09/02 05:23:29;;;;;;;3.40;1.70;;;;;;;20.45;73.67;100495.69;5105849;28;20225;-58
2023/09/02 05:25:55;;;;;;;2.63;1.63;;;;;;;20.45;73.57;100504.28;5122470;28;20173;-58
2023/09/02 05:28:22;;;;;;;5.17;2.03;;;;;;;20.44;73.61;100509.22;5113190;28;20209;-58
2023/09/02 05:30:47;;;;;;;2.73;1.53;;;;;;;20.44;73.18;100512.06;5108025;28;20930;-58
2023/09/02 05:33:14;;;;;;;2.90;1.57;;;;;;;20.45;73.26;100518.63;5102341;28;20432;-58
2023/09/02 05:35:40;;;;;;;2.87;1.50;;;;;;;20.44;73.31;100529.28;5108124;28;20182;-58
2023/09/02 05:38:06;;;;;;;2.73;1.57;;;;;;;20.44;73.17;100523.56;5108313;28;20422;-59
2023/09/02 05:40:31;;;;;;;3.10;1.70;;;;;;;20.44;73.58;100537.06;5090604;28;20179;-58
2023/09/02 05:42:57;;;;;;;3.50;1.63;;;;;;;20.44;73.04;100534.19;5107905;28;20434;-58
2023/09/02 05:45:22;;;;;;;4.13;1.67;;;;;;;20.43;73.45;100530.50;5103019;28;20182;-58
2023/09/02 05:47:48;;;;;;;3.47;1.70;;;;;;;20.43;73.47;100539.13;5108101;28;20161;-58
2023/09/02 05:50:13;;;;;;;2.77;1.80;;;;;;;20.44;73.34;100539.91;5105819;28;20370;-58
2023/09/02 05:52:40;;;;;;;2.93;1.70;;;;;;;20.42;72.97;100537.44;5099394;28;20683;-58
2023/09/02 05:55:06;;;;;;;3.97;1.70;;;;;;;20.43;72.97;100550.59;5107750;28;20189;-58
2023/09/02 05:57:32;;;;;;;3.03;1.70;;;;;;;20.42;73.24;100543.16;5107730;28;20417;-58
2023/09/02 05:59:58;;;;;;;7.53;2.20;;;;;;;20.42;73.46;100543.16;5103937;28;20900;-58
2023/09/02 06:02:23;;;;;;;5.17;2.03;;;;;;;20.42;73.34;100543.16;5106705;28;20672;-58
2023/09/02 06:04:48;;;;;;;3.07;1.67;;;;;;;20.42;73.50;100548.91;5106954;28;20173;-58
2023/09/02 06:07:14;;;;;;;3.50;2.10;;;;;;;20.42;73.50;100548.09;5099500;28;20175;-58
2023/09/02 06:09:39;;;;;;;4.53;1.90;;;;;;;20.42;73.07;100548.91;5102977;28;20205;-57
2023/09/02 06:12:05;;;;;;;5.03;2.40;;;;;;;20.42;73.17;100548.91;5084986;28;20185;-58
2023/09/02 06:14:30;;;;;;;7.63;1.80;;;;;;;20.42;73.36;100563.25;5107505;28;20193;-57
2023/09/02 06:16:56;;;;;;;4.10;2.13;;;;;;;20.41;73.42;100550.13;5104575;28;20255;-58
2023/09/02 06:19:21;;;;;;;4.93;1.93;;;;;;;20.42;73.47;100560.38;5097704;28;20183;-58
2023/09/02 06:21:47;;;;;;;2.90;1.80;;;;;;;20.42;73.08;100557.50;5068964;28;20230;-58
2023/09/02 06:24:12;;;;;;;4.37;1.97;;;;;;;20.42;73.45;100568.97;5091063;28;20178;-58
2023/09/02 06:26:38;;;;;;;3.80;1.93;;;;;;;20.43;73.17;100564.09;5090792;28;20230;-58
2023/09/02 06:29:03;;;;;;;3.40;2.07;;;;;;;20.42;73.53;100560.38;5108044;28;20209;-59
2023/09/02 06:31:29;;;;;;;3.03;2.03;;;;;;;20.42;73.53;100559.56;5101671;28;20178;-58
2023/09/02 06:33:54;;;;;;;3.50;2.00;;;;;;;20.42;73.40;100562.44;5107799;28;20185;-58
2023/09/02 06:36:21;;;;;;;4.00;1.70;;;;;;;20.42;73.33;100577.59;5092796;28;20174;-57
2023/09/02 06:38:46;;;;;;;3.43;2.00;;;;;;;20.42;73.50;100577.59;5110507;28;20201;-58
2023/09/02 06:41:14;;;;;;;4.07;2.00;;;;;;;20.42;73.77;100583.31;5109621;28;20957;-58
2023/09/02 06:43:39;;;;;;;3.10;1.90;;;;;;;20.42;73.67;100583.31;5106734;27;20188;-58
2023/09/02 06:46:10;;;;;;;4.10;2.27;;;;;;;20.42;73.48;100579.66;5101420;28;20424;-58
2023/09/02 06:48:36;;;;;;;3.03;1.80;;;;;;;20.41;73.72;100578.00;5100624;28;20224;-58
2023/09/02 06:51:01;;;;;;;6.07;1.63;;;;;;;20.42;73.66;100593.97;5112731;27;20474;-58
2023/09/02 06:53:27;;;;;;;2.87;1.80;;;;;;;20.42;73.64;100597.66;5082537;28;20205;-58
2023/09/02 06:55:52;;;;;;;3.67;2.20;;;;;;;20.42;73.74;100603.41;5098985;28;20528;-57
2023/09/02 06:58:18;;;;;;;3.73;2.13;;;;;;;20.42;73.92;100603.41;5105699;28;20633;-58
2023/09/02 07:00:43;;;;;;;5.33;2.07;;;;;;;20.42;73.74;100597.66;5106062;28;20677;-58
2023/09/02 07:03:09;;;;;;;3.03;2.00;;;;;;;20.43;73.90;100595.63;5103517;28;20879;-58
2023/09/02 07:05:34;;;;;;;3.40;1.70;;;;;;;20.42;74.08;100600.53;5110820;27;20517;-58
2023/09/02 07:08:00;;;;;;;5.03;2.00;;;;;;;20.43;74.41;100602.22;5107882;28;20232;-58
2023/09/02 07:10:25;;;;;;;2.83;1.90;;;;;;;20.42;74.02;100603.41;5090261;28;20200;-58
2023/09/02 07:12:53;;;;;;;3.30;2.17;;;;;;;20.43;74.15;100601.38;5109008;28;20275;-58
2023/09/02 07:15:19;;;;;;;3.80;1.90;;;;;;;20.43;74.07;100601.38;5109430;27;20178;-57
2023/09/02 07:17:46;;;;;;;4.20;2.17;;;;;;;20.42;74.41;100605.47;5105007;28;20440;-58
2023/09/02 07:20:12;;;;;;;2.60;1.63;;;;;;;20.43;74.97;100609.97;5093711;28;20193;-58
2023/09/02 07:22:37;;;;;;;6.00;1.77;;;;;;;20.43;74.57;100607.09;5096191;28;20499;-58
2023/09/02 07:25:04;;;;;;;5.50;2.30;;;;;;;20.42;74.43;100609.13;5099300;27;20197;-58
2023/09/02 07:27:31;;;;;;;4.10;2.40;;;;;;;20.42;74.27;100612.00;5095864;28;20193;-58
2023/09/02 07:29:58;;;;;;;4.30;2.30;;;;;;;20.43;74.26;100612.84;5094797;28;20482;-58
2023/09/02 07:32:24;;;;;;;4.70;2.27;;;;;;;20.43;74.57;100615.69;5098626;28;20424;-58
2023/09/02 07:34:49;;;;;;;3.27;1.90;;;;;;;20.43;74.50;100615.69;5096517;28;20447;-58
2023/09/02 07:37:15;;;;;;;3.13;2.13;;;;;;;20.43;74.63;100613.69;5100898;28;20187;-57
2023/09/02 07:39:40;;;;;;;2.90;2.00;;;;;;;20.43;74.46;100619.41;5097674;27;20183;-57
2023/09/02 07:42:06;;;;;;;4.33;2.00;;;;;;;20.43;74.45;100618.56;5101007;28;20729;-58
2023/09/02 07:44:31;;;;;;;5.70;2.07;;;;;;;20.46;74.80;100624.34;5093355;28;20240;-58
2023/09/02 07:46:57;;;;;;;5.13;2.80;;;;;;;20.46;75.61;100621.50;5094106;28;20217;-58
2023/09/02 07:49:23;;;;;;;3.23;1.93;;;;;;;20.46;75.51;100630.09;5099421;28;20214;-58
2023/09/02 07:51:48;;;;;;;5.30;2.53;;;;;;;20.45;75.88;100625.56;5092692;28;20189;-59
2023/09/02 07:54:14;;;;;;;6.40;2.67;;;;;;;20.47;76.55;100634.63;5075888;28;20190;-58
2023/09/02 07:56:40;;;;;;;10.00;3.80;;;;;;;20.60;78.40;100624.59;5106087;28;20970;-58
2023/09/02 07:59:06;;;;;;;6.73;3.20;;;;;;;20.74;78.43;100616.19;5093028;28;20445;-58
2023/09/02 08:01:32;;;;;;;7.10;3.23;;;;;;;20.77;78.58;100621.13;5095890;28;20444;-58
2023/09/02 08:03:57;;;;;;;7.77;3.33;;;;;;;20.77;79.08;100621.13;5098887;28;20201;-58
2023/09/02 08:06:23;;;;;;;6.33;4.10;;;;;;;20.76;79.43;100621.50;5097073;28;20262;-58
2023/09/02 08:08:48;;;;;;;7.43;4.17;;;;;;;20.76;79.61;100619.47;5084099;28;20642;-58
2023/09/02 08:11:17;;;;;;;15.73;3.97;;;;;;;20.78;80.31;100625.66;5091351;28;20182;-59
2023/09/02 08:13:43;;;;;;;6.37;3.43;;;;;;;20.85;79.88;100630.66;5088213;28;20263;-58
2023/09/02 08:16:08;;;;;;;5.50;2.93;;;;;;;20.81;79.33;100621.16;5096485;27;20432;-59
2023/09/02 08:18:34;;;;;;;4.70;2.80;;;;;;;20.86;80.12;100633.16;5098242;28;20181;-59
2023/09/02 08:21:00;;;;;;;9.40;3.10;;;;;;;20.89;79.92;100632.41;5103921;28;20181;-59
2023/09/02 08:23:25;;;;;;;9.00;2.83;;;;;;;20.84;79.29;100627.00;5098418;28;20594;-58
2023/09/02 08:25:51;;;;;;;6.00;3.07;;;;;;;20.87;79.68;100629.06;5091418;28;20256;-59
2023/09/02 08:28:16;;;;;;;4.80;3.30;;;;;;;20.86;78.84;100633.16;5105561;27;20201;-59
2023/09/02 08:30:43;;;;;;;7.57;2.90;;;;;;;20.89;79.50;100637.28;5104997;28;20177;-59
2023/09/02 08:33:08;;;;;;;3.90;2.50;;;;;;;20.88;79.07;100630.72;5108573;28;20189;-59
2023/09/02 08:35:37;;;;;;;6.20;2.83;;;;;;;20.86;78.83;100630.28;5108465;28;20427;-58
2023/09/02 08:38:05;;;;;;;8.50;2.67;;;;;;;20.79;78.68;100630.19;5094308;28;20237;-57
2023/09/02 08:40:31;;;;;;;4.73;3.00;;;;;;;20.89;78.83;100637.28;5103109;28;21323;-60
2023/09/02 08:42:56;;;;;;;6.70;2.87;;;;;;;20.87;78.77;100634.00;5103725;28;20439;-59
2023/09/02 08:45:22;;;;;;;6.30;3.10;;;;;;;21.03;80.06;100631.78;5092858;28;20239;-58
2023/09/02 08:47:51;;;;;;;10.83;3.80;;;;;;;21.24;79.89;100626.31;5104091;28;20220;-60
2023/09/02 08:50:17;;;;;;;7.50;4.47;;;;;;;21.30;80.86;100625.56;5108928;27;20243;-58
2023/09/02 08:52:42;;;;;;;7.13;4.30;;;;;;;21.29;81.74;100635.41;5084069;27;20432;-59
2023/09/02 08:55:09;;;;;;;5.53;3.70;;;;;;;21.22;80.53;100634.50;5075926;28;20788;-58
2023/09/02 08:57:34;;;;;;;8.10;3.50;;;;;;;21.20;79.88;100637.75;5107507;28;20190;-58
2023/09/02 09:00:00;;;;;;;6.63;3.43;;;;;;;21.18;80.56;100640.16;5068672;28;20523;-58
2023/09/02 09:02:26;;;;;;;6.00;3.23;;;;;;;21.25;79.89;100639.44;5107344;28;20243;-58
2023/09/02 09:04:52;;;;;;;6.30;3.70;;;;;;;21.25;80.55;100650.94;5107187;28;20186;-60
2023/09/02 09:07:18;;;;;;;5.67;3.40;;;;;;;21.20;80.97;100648.41;5104032;28;20185;-59
2023/09/02 09:09:43;;;;;;;6.10;3.23;;;;;;;21.21;80.69;100650.88;5094709;28;20580;-59
2023/09/02 09:12:09;;;;;;;5.97;2.67;;;;;;;21.18;80.76;100651.66;5110235;28;20181;-58
2023/09/02 09:14:36;;;;;;;4.23;2.37;;;;;;;21.20;80.73;100643.50;5105767;28;20645;-58
2023/09/02 09:17:01;;;;;;;6.10;2.90;;;;;;;21.23;80.15;100639.81;5086464;28;20186;-60
2023/09/02 09:19:27;;;;;;;3.70;1.93;;;;;;;21.22;80.45;100641.03;5094515;28;20490;-60
2023/09/02 09:21:54;;;;;;;5.63;2.43;;;;;;;21.23;80.45;100636.16;5101051;28;20226;-59
2023/09/02 09:24:20;;;;;;;5.57;2.63;;;;;;;21.24;80.28;100637.78;5069692;28;20742;-59
2023/09/02 09:26:45;;;;;;;4.27;2.13;;;;;;;21.26;80.42;100641.94;5075457;28;20484;-60
2023/09/02 09:29:12;;;;;;;8.20;2.60;;;;;;;21.24;80.00;100632.88;5087655;28;20197;-59
2023/09/02 09:31:38;;;;;;;3.43;2.30;;;;;;;21.26;79.81;100636.19;5091877;28;20633;-58
2023/09/02 09:34:04;;;;;;;4.00;2.40;;;;;;;21.33;79.59;100638.31;5106962;28;20435;-60
2023/09/02 09:36:30;;;;;;;5.50;2.40;;;;;;;21.35;79.92;100633.84;5098010;28;20540;-59
2023/09/02 09:38:57;;;;;;;4.00;2.40;;;;;;;21.35;79.80;100633.84;5096224;28;20554;-59
2023/09/02 09:41:25;;;;;;;4.37;2.40;;;;;;;21.36;79.40;100638.34;5088875;28;20470;-59
2023/09/02 09:44:15;;;;;;;5.00;1.90;;;;;;;21.32;79.89;100634.59;5097536;28;20792;-59
2023/09/02 09:46:48;;;;;;;2.97;2.10;;;;;;;21.32;80.16;100628.88;5106386;28;20427;-58
2023/09/02 09:49:27;;;;;;;5.37;2.80;;;;;;;21.33;79.55;100636.25;5097769;28;20475;-58
2023/09/02 09:52:01;;;;;;;3.80;2.00;;;;;;;21.33;79.08;100633.38;5086595;28;20445;-59
2023/09/02 09:54:37;;;;;;;3.70;2.33;;;;;;;21.29;79.31;100631.69;5096912;28;20928;-60
2023/09/02 09:57:07;;;;;;;4.50;2.40;;;;;;;21.27;79.02;100626.34;5095095;28;20439;-58
2023/09/02 09:59:34;;;;;;;3.73;2.23;;;;;;;21.26;78.82;100633.31;5109306;28;20920;-57
2023/09/02 10:02:01;;;;;;;5.17;2.50;;;;;;;21.24;78.74;100627.16;5102894;28;20990;-58
2023/09/02 10:04:27;;;;;;;5.53;3.00;;;;;;;21.23;79.17;100634.09;5104364;28;20483;-58
2023/09/02 10:07:03;;;;;;;6.23;2.47;;;;;;;21.23;78.47;100642.69;5102259;28;20439;-59
2023/09/02 10:09:45;;;;;;;3.67;2.30;;;;;;;21.22;78.76;100628.75;5099837;28;20452;-58
2023/09/02 10:12:11;;;;;;;3.37;2.23;;;;;;;21.19;78.24;100630.38;5108307;28;20492;-57
2023/09/02 10:14:47;;;;;;;7.50;2.77;;;;;;;21.25;78.83;100628.78;5108394;28;20494;-58
2023/09/02 10:17:13;;;;;;;5.23;2.30;;;;;;;21.27;78.83;100628.41;5098405;28;20435;-58
2023/09/02 10:19:39;;;;;;;5.10;2.50;;;;;;;21.28;78.45;100625.13;5118799;27;20559;-59
2023/09/02 10:22:05;;;;;;;7.80;2.80;;;;;;;21.38;79.11;100633.03;5077301;28;20468;-59
2023/09/02 10:24:35;;;;;;;4.50;2.37;;;;;;;21.44;79.45;100624.91;5092846;28;20198;-59
2023/09/02 10:27:06;;;;;;;5.20;2.70;;;;;;;21.54;79.73;100625.03;5105218;28;20182;-58
2023/09/02 10:29:33;;;;;;;7.60;2.70;;;;;;;21.62;80.00;100621.00;5090605;28;20470;-60
2023/09/02 10:32:03;;;;;;;4.53;2.90;;;;;;;21.62;80.30;100621.00;5096078;28;20428;-59
2023/09/02 10:34:39;;;;;;;4.23;2.70;;;;;;;21.59;81.10;100616.06;5110933;28;20427;-59
2023/09/02 10:37:05;;;;;;;8.43;2.77;;;;;;;21.63;81.38;100616.91;5106117;28;20447;-58
2023/09/02 10:39:49;;;;;;;6.20;2.37;;;;;;;21.66;82.59;100610.38;5103859;28;20439;-58
2023/09/02 10:42:14;;;;;;;4.00;2.57;;;;;;;21.67;82.38;100612.03;5099691;28;20190;-59
2023/09/02 10:44:40;;;;;;;4.17;2.43;;;;;;;21.66;81.73;100610.38;5105087;28;20487;-59
2023/09/02 10:47:05;;;;;;;5.70;2.70;;;;;;;21.63;81.42;100605.41;5108604;28;20219;-59
2023/09/02 10:49:31;;;;;;;6.83;2.87;;;;;;;21.57;81.43;100607.00;5084649;28;20238;-59
2023/09/02 10:51:57;;;;;;;4.33;2.73;;;;;;;21.53;81.62;100605.31;5085925;28;20216;-59
2023/09/02 10:54:22;;;;;;;4.77;2.80;;;;;;;21.48;80.90;100594.19;5115099;27;21141;-58
2023/09/02 10:56:48;;;;;;;6.43;2.93;;;;;;;;;;5106423;28;20653;-59
2023/09/02 10:59:13;;;;;;;11.90;2.63;;;;;;;21.42;80.69;100598.63;5086090;28;20875;-58
2023/09/02 11:01:46;;;;;;;6.57;2.70;;;;;;;21.38;80.54;100597.75;5071125;28;20225;-58
2023/09/02 11:04:11;;;;;;;6.23;2.20;;;;;;;21.38;80.19;100598.56;5117158;27;20287;-59
2023/09/02 11:06:37;;;;;;;4.10;2.60;;;;;;;21.41;80.43;100592.03;5095309;28;20432;-59
2023/09/02 11:09:02;;;;;;;8.73;2.20;;;;;;;21.53;79.99;100588.88;5093841;28;20202;-59
2023/09/02 11:12:06;;;;;;;5.10;2.10;;;;;;;21.58;79.98;100591.41;5109199;28;20276;-59
2023/09/02 11:14:32;;;;;;;4.17;2.60;;;;;;;21.60;80.08;100593.88;5100894;27;20289;-59
2023/09/02 11:17:28;;;;;;;5.53;2.33;;;;;;;21.65;79.80;100594.38;5110691;27;20531;-60
2023/09/02 11:19:55;;;;;;;4.57;2.47;;;;;;;21.72;79.68;100590.78;5105600;27;20518;-60
2023/09/02 11:22:53;;;;;;;6.00;2.60;;;;;;;21.71;79.95;100594.84;5111908;27;20532;-59
2023/09/02 11:25:38;;;;;;;6.73;2.23;;;;;;;21.72;79.34;100593.66;5109571;28;20399;-59